createdAt,value
2022-08-02T00:00:03.939Z,1.10
2022-08-02T00:00:22.679Z,0.95
2022-08-02T00:00:39.365Z,0.98
2022-08-02T00:00:56.366Z,1.05
2022-08-02T00:01:13.084Z,0.98
2022-08-02T00:01:29.872Z,1.00
2022-08-02T00:01:47.584Z,1.30
2022-08-02T00:02:04.997Z,1.48
2022-08-02T00:02:21.659Z,1.17
2022-08-02T00:02:38.254Z,0.73
2022-08-02T00:02:55.852Z,0.70
2022-08-02T00:03:12.487Z,0.75
2022-08-02T00:03:29.414Z,0.95
2022-08-02T00:03:47.456Z,0.98
2022-08-02T00:04:04.219Z,0.80
2022-08-02T00:04:22.824Z,0.70
2022-08-02T00:04:39.473Z,0.68
2022-08-02T00:04:56.088Z,0.80
2022-08-02T00:05:13.520Z,0.77
2022-08-02T00:05:30.110Z,1.00
2022-08-02T00:05:52.995Z,0.93
2022-08-02T00:06:11.379Z,1.30
2022-08-02T00:06:28.023Z,1.10
2022-08-02T00:06:46.078Z,0.80
2022-08-02T00:07:27.721Z,0.80
2022-08-02T00:07:45.396Z,1.02
2022-08-02T00:08:02.134Z,0.95
2022-08-02T00:08:18.748Z,0.60
2022-08-02T00:08:35.394Z,0.70
2022-08-02T00:08:54.213Z,0.70
2022-08-02T00:09:10.838Z,0.64
2022-08-02T00:09:28.469Z,0.73
2022-08-02T00:09:45.200Z,0.98
2022-08-02T00:10:04.820Z,0.90
2022-08-02T00:10:21.498Z,0.93
2022-08-02T00:10:39.115Z,0.82
2022-08-02T00:10:55.807Z,0.70
2022-08-02T00:11:12.621Z,0.73
2022-08-02T00:11:29.260Z,0.82
2022-08-02T00:11:46.860Z,0.80
2022-08-02T00:12:03.593Z,0.63
2022-08-02T00:12:20.273Z,0.70
2022-08-02T00:12:37.544Z,0.60
2022-08-02T00:12:54.163Z,0.80
2022-08-02T00:13:12.810Z,0.73
2022-08-02T00:13:29.528Z,0.75
2022-08-02T00:13:46.187Z,0.95
2022-08-02T00:14:02.883Z,0.80
2022-08-02T00:14:19.548Z,0.77
2022-08-02T00:14:37.285Z,0.95
2022-08-02T00:14:53.927Z,0.98
2022-08-02T00:15:10.815Z,1.15
2022-08-02T00:15:32.837Z,0.93
2022-08-02T00:15:49.496Z,0.98
2022-08-02T00:16:07.245Z,0.85
2022-08-02T00:16:24.034Z,0.82
2022-08-02T00:16:55.005Z,0.80
2022-08-02T00:17:11.657Z,0.82
2022-08-02T00:17:28.296Z,0.90
2022-08-02T00:17:47.303Z,1.13
2022-08-02T00:18:05.302Z,1.00
2022-08-02T00:18:21.908Z,0.70
2022-08-02T00:18:38.587Z,0.80
2022-08-02T00:18:57.916Z,0.70
2022-08-02T00:19:15.772Z,0.88
2022-08-02T00:19:32.404Z,0.93
2022-08-02T00:19:49.034Z,0.80
2022-08-02T00:20:06.372Z,0.80
2022-08-02T00:20:23.016Z,0.95
2022-08-02T00:20:40.754Z,0.90
2022-08-02T00:20:57.450Z,0.98
2022-08-02T00:21:14.219Z,0.90
2022-08-02T00:21:31.518Z,0.70
2022-08-02T00:21:49.543Z,0.70
2022-08-02T00:22:07.334Z,0.77
2022-08-02T00:22:24.087Z,0.80
2022-08-02T00:22:40.667Z,0.80
2022-08-02T00:22:57.348Z,0.85
2022-08-02T00:23:13.977Z,0.70
2022-08-02T00:23:30.593Z,0.70
2022-08-02T00:24:28.105Z,0.80
2022-08-02T00:24:31.121Z,0.73
2022-08-02T00:24:47.922Z,0.90
2022-08-02T00:25:05.027Z,0.98
2022-08-02T00:25:21.613Z,1.00
2022-08-02T00:25:55.432Z,0.90
2022-08-02T00:26:12.485Z,0.77
2022-08-02T00:26:29.039Z,0.80
2022-08-02T00:26:45.638Z,0.75
2022-08-02T00:27:05.033Z,0.70
2022-08-02T00:27:26.164Z,0.90
2022-08-02T00:27:42.778Z,0.93
2022-08-02T00:27:59.439Z,1.00
2022-08-02T00:28:23.325Z,0.90
2022-08-02T00:28:45.162Z,1.10
2022-08-02T00:29:01.723Z,1.23
2022-08-02T00:29:18.330Z,1.13
2022-08-02T00:29:34.969Z,1.02
2022-08-02T00:30:00.071Z,1.00
2022-08-02T00:30:16.767Z,0.60
2022-08-02T00:30:33.405Z,0.65
2022-08-02T00:30:49.985Z,0.90
2022-08-02T00:31:06.565Z,1.10
2022-08-02T00:31:24.288Z,1.10
2022-08-02T00:31:40.885Z,1.20
2022-08-02T00:31:57.595Z,1.13
2022-08-02T00:32:14.154Z,1.10
2022-08-02T00:32:30.799Z,1.27
2022-08-02T00:32:48.357Z,1.70
2022-08-02T00:33:05.662Z,1.70
2022-08-02T00:34:05.752Z,1.66
2022-08-02T00:34:26.599Z,1.90
2022-08-02T00:34:38.023Z,1.80
2022-08-02T00:34:54.773Z,2.20
2022-08-02T00:35:12.371Z,1.75
2022-08-02T00:35:28.954Z,1.50
2022-08-02T00:35:47.170Z,1.17
2022-08-02T00:36:04.047Z,0.90
2022-08-02T00:36:21.651Z,0.88
2022-08-02T00:36:38.259Z,1.17
2022-08-02T00:36:56.276Z,1.20
2022-08-02T00:37:13.013Z,1.10
2022-08-02T00:37:29.592Z,0.98
2022-08-02T00:37:47.219Z,1.15
2022-08-02T00:38:04.171Z,1.50
2022-08-02T00:38:20.743Z,1.38
2022-08-02T00:38:37.334Z,1.20
2022-08-02T00:38:54.167Z,1.38
2022-08-02T00:39:33.955Z,1.12
2022-08-02T00:39:48.394Z,1.30
2022-08-02T00:40:05.590Z,1.58
2022-08-02T00:40:24.126Z,1.50
2022-08-02T00:40:41.339Z,1.45
2022-08-02T00:40:59.143Z,1.45
2022-08-02T00:41:16.751Z,0.93
2022-08-02T00:41:33.361Z,1.00
2022-08-02T00:41:51.417Z,1.15
2022-08-02T00:42:10.458Z,1.25
2022-08-02T00:42:27.433Z,1.52
2022-08-02T00:42:44.283Z,1.67
2022-08-02T00:43:01.936Z,1.63
2022-08-02T00:43:19.860Z,1.25
2022-08-02T00:43:36.428Z,1.20
2022-08-02T00:43:53.120Z,1.17
2022-08-02T00:44:09.722Z,1.50
2022-08-02T00:44:29.269Z,1.63
2022-08-02T00:44:46.882Z,1.58
2022-08-02T00:45:03.601Z,1.42
2022-08-02T00:45:20.233Z,1.60
2022-08-02T00:46:02.087Z,1.44
2022-08-02T00:46:21.713Z,1.10
2022-08-02T00:46:38.302Z,1.20
2022-08-02T00:46:54.885Z,1.15
2022-08-02T00:47:11.452Z,1.42
2022-08-02T00:47:36.710Z,2.10
2022-08-02T00:47:53.271Z,1.42
2022-08-02T00:48:10.768Z,1.13
2022-08-02T00:48:27.348Z,0.98
2022-08-02T00:48:44.143Z,1.08
2022-08-02T00:49:02.177Z,1.20
2022-08-02T00:49:18.842Z,1.33
2022-08-02T00:49:38.065Z,1.20
2022-08-02T00:49:54.675Z,1.00
2022-08-02T00:50:12.383Z,0.93
2022-08-02T00:50:28.967Z,0.88
2022-08-02T00:50:45.545Z,0.90
2022-08-02T00:51:02.153Z,1.10
2022-08-02T00:51:19.784Z,1.27
2022-08-02T00:51:36.658Z,1.00
2022-08-02T00:51:53.230Z,1.13
2022-08-02T00:52:12.564Z,1.13
2022-08-02T00:52:29.456Z,1.10
2022-08-02T00:52:47.014Z,1.38
2022-08-02T00:53:03.777Z,1.15
2022-08-02T00:53:20.354Z,0.80
2022-08-02T00:53:36.918Z,0.90
2022-08-02T00:53:53.507Z,1.10
2022-08-02T00:54:11.205Z,0.90
2022-08-02T00:54:27.800Z,0.93
2022-08-02T00:54:44.390Z,0.77
2022-08-02T00:55:00.996Z,0.90
2022-08-02T00:55:17.608Z,1.23
2022-08-02T00:55:40.115Z,1.23
2022-08-02T00:55:57.655Z,1.50
2022-08-02T00:56:14.241Z,1.28
2022-08-02T00:56:30.996Z,1.17
2022-08-02T00:56:49.671Z,1.10
2022-08-02T00:57:08.509Z,0.73
2022-08-02T00:57:25.080Z,0.85
2022-08-02T00:57:41.749Z,1.08
2022-08-02T00:57:58.338Z,1.05
2022-08-02T00:58:18.009Z,1.00
2022-08-02T00:58:35.875Z,1.10
2022-08-02T00:58:52.496Z,1.20
2022-08-02T00:59:09.479Z,1.25
2022-08-02T00:59:29.626Z,1.23
2022-08-02T00:59:47.283Z,1.08
2022-08-02T01:00:05.081Z,1.25
2022-08-02T01:00:22.017Z,0.98
2022-08-02T01:00:38.659Z,1.00
2022-08-02T01:00:57.447Z,0.93
2022-08-02T01:01:16.138Z,1.04
2022-08-02T01:01:38.669Z,1.05
2022-08-02T01:02:13.896Z,1.00
2022-08-02T01:02:30.952Z,0.85
2022-08-02T01:02:47.546Z,1.25
2022-08-02T01:03:05.124Z,1.40
2022-08-02T01:03:23.360Z,1.23
2022-08-02T01:03:39.928Z,1.20
2022-08-02T01:03:56.499Z,0.98
2022-08-02T01:04:14.254Z,0.88
2022-08-02T01:04:32.992Z,1.00
2022-08-02T01:04:49.585Z,1.00
2022-08-02T01:05:06.628Z,0.75
2022-08-02T01:05:23.293Z,0.80
2022-08-02T01:06:09.190Z,1.27
2022-08-02T01:06:17.737Z,1.13
2022-08-02T01:06:34.413Z,1.00
2022-08-02T01:06:51.019Z,1.50
2022-08-02T01:07:13.126Z,1.70
2022-08-02T01:07:32.818Z,1.10
2022-08-02T01:07:49.405Z,0.90
2022-08-02T01:08:06.003Z,0.82
2022-08-02T01:08:22.632Z,0.82
2022-08-02T01:08:47.218Z,0.70
2022-08-02T01:09:04.347Z,0.80
2022-08-02T01:09:22.163Z,1.20
2022-08-02T01:09:38.727Z,1.25
2022-08-02T01:09:55.862Z,0.85
2022-08-02T01:10:13.724Z,0.90
2022-08-02T01:10:30.361Z,0.90
2022-08-02T01:10:46.945Z,0.90
2022-08-02T01:11:04.418Z,0.98
2022-08-02T01:11:22.053Z,0.95
2022-08-02T01:11:39.661Z,0.85
2022-08-02T01:11:56.200Z,0.75
2022-08-02T01:12:13.902Z,0.80
2022-08-02T01:12:30.889Z,0.85
2022-08-02T01:12:47.880Z,0.95
2022-08-02T01:13:05.452Z,0.73
2022-08-02T01:13:22.077Z,0.77
2022-08-02T01:13:38.760Z,1.20
2022-08-02T01:13:56.775Z,1.27
2022-08-02T01:14:14.945Z,1.20
2022-08-02T01:14:31.878Z,1.15
2022-08-02T01:14:50.035Z,1.02
2022-08-02T01:15:08.893Z,1.05
2022-08-02T01:15:35.766Z,0.73
2022-08-02T01:15:59.146Z,0.77
2022-08-02T01:16:19.107Z,0.80
2022-08-02T01:16:37.956Z,0.90
2022-08-02T01:17:00.033Z,0.80
2022-08-02T01:17:21.447Z,0.70
2022-08-02T01:17:41.604Z,0.55
2022-08-02T01:18:02.673Z,0.88
2022-08-02T01:18:21.679Z,1.13
2022-08-02T01:18:41.754Z,0.90
2022-08-02T01:19:00.055Z,0.77
2022-08-02T01:19:28.393Z,0.68
2022-08-02T01:19:50.459Z,1.05
2022-08-02T01:20:13.051Z,0.90
2022-08-02T01:20:56.365Z,0.90
2022-08-02T01:21:32.694Z,0.98
2022-08-02T01:21:58.633Z,0.90
2022-08-02T01:22:19.293Z,0.90
2022-08-02T01:23:01.735Z,0.90
2022-08-02T01:23:29.531Z,1.40
2022-08-02T01:23:54.933Z,0.85
2022-08-02T01:24:20.115Z,0.82
2022-08-02T01:24:46.979Z,0.60
2022-08-02T01:25:16.113Z,0.98
2022-08-02T01:25:45.095Z,0.95
2022-08-02T01:26:11.872Z,0.68
2022-08-02T01:26:38.564Z,0.80
2022-08-02T01:26:59.064Z,0.80
2022-08-02T01:27:22.383Z,1.00
2022-08-02T01:27:45.362Z,0.85
2022-08-02T01:28:09.016Z,1.28
2022-08-02T01:28:28.301Z,1.45
2022-08-02T01:28:50.320Z,1.50
2022-08-02T01:29:08.833Z,1.40
2022-08-02T01:29:26.691Z,1.38
2022-08-02T01:29:45.494Z,1.10
2022-08-02T01:30:02.594Z,1.20
2022-08-02T01:30:20.734Z,1.17
2022-08-02T01:30:38.145Z,1.20
2022-08-02T01:30:57.294Z,1.35
2022-08-02T01:31:15.555Z,1.23
2022-08-02T01:31:33.777Z,1.33
2022-08-02T01:31:55.057Z,1.58
2022-08-02T01:32:14.396Z,1.42
2022-08-02T01:32:34.117Z,1.30
2022-08-02T01:32:53.809Z,1.26
2022-08-02T01:33:12.882Z,1.20
2022-08-02T01:33:33.764Z,1.00
2022-08-02T01:33:55.254Z,0.98
2022-08-02T01:34:13.265Z,0.77
2022-08-02T01:34:32.241Z,0.80
2022-08-02T01:34:53.598Z,0.88
2022-08-02T01:35:13.594Z,1.10
2022-08-02T01:35:50.593Z,1.00
2022-08-02T01:36:10.545Z,1.13
2022-08-02T01:36:29.035Z,0.80
2022-08-02T01:36:49.371Z,0.80
2022-08-02T01:37:09.077Z,1.20
2022-08-02T01:37:27.960Z,1.00
2022-08-02T01:37:46.625Z,1.55
2022-08-02T01:38:07.247Z,1.58
2022-08-02T01:38:28.959Z,1.08
2022-08-02T01:38:47.681Z,1.10
2022-08-02T01:39:05.373Z,0.90
2022-08-02T01:39:26.670Z,1.00
2022-08-02T01:39:47.406Z,1.23
2022-08-02T01:40:08.170Z,1.20
2022-08-02T01:40:28.095Z,1.60
2022-08-02T01:40:45.243Z,1.67
2022-08-02T01:41:03.799Z,1.40
2022-08-02T01:41:23.865Z,1.02
2022-08-02T01:41:42.264Z,1.38
2022-08-02T01:41:59.879Z,1.77
2022-08-02T01:42:18.266Z,1.63
2022-08-02T01:42:35.752Z,1.30
2022-08-02T01:42:54.062Z,1.40
2022-08-02T01:43:13.890Z,1.52
2022-08-02T01:43:31.424Z,1.60
2022-08-02T01:43:49.589Z,1.50
2022-08-02T01:44:07.065Z,1.30
2022-08-02T01:44:27.605Z,1.45
2022-08-02T01:44:46.895Z,1.65
2022-08-02T01:45:04.146Z,1.20
2022-08-02T01:45:21.989Z,1.88
2022-08-02T01:45:40.964Z,1.52
2022-08-02T01:45:58.678Z,0.82
2022-08-02T01:46:16.551Z,1.00
2022-08-02T01:46:35.100Z,0.93
2022-08-02T01:46:54.755Z,1.10
2022-08-02T01:47:15.249Z,0.95
2022-08-02T01:47:35.403Z,0.90
2022-08-02T01:47:52.471Z,1.00
2022-08-02T01:48:11.012Z,1.38
2022-08-02T01:48:29.089Z,1.30
2022-08-02T01:48:46.708Z,1.00
2022-08-02T01:49:08.473Z,1.20
2022-08-02T01:49:30.024Z,1.27
2022-08-02T01:49:47.644Z,1.30
2022-08-02T01:50:05.851Z,1.13
2022-08-02T01:50:24.773Z,0.90
2022-08-02T01:50:42.469Z,0.95
2022-08-02T01:50:59.731Z,0.90
2022-08-02T01:51:18.482Z,0.90
2022-08-02T01:51:54.074Z,0.82
2022-08-02T01:52:23.570Z,0.80
2022-08-02T01:52:53.504Z,1.20
2022-08-02T01:53:11.841Z,1.08
2022-08-02T01:53:30.142Z,0.80
2022-08-02T01:53:50.031Z,0.98
2022-08-02T01:54:07.562Z,1.00
2022-08-02T01:54:26.144Z,0.90
2022-08-02T01:54:44.135Z,1.00
2022-08-02T01:55:03.192Z,1.30
2022-08-02T01:55:21.882Z,1.25
2022-08-02T01:55:58.102Z,1.02
2022-08-02T01:56:17.690Z,0.85
2022-08-02T01:56:34.968Z,0.98
2022-08-02T01:56:52.015Z,1.13
2022-08-02T01:57:10.319Z,1.10
2022-08-02T01:57:27.941Z,1.25
2022-08-02T01:57:47.376Z,1.17
2022-08-02T01:58:07.560Z,1.38
2022-08-02T01:58:27.432Z,1.27
2022-08-02T01:58:45.528Z,0.93
2022-08-02T01:59:04.382Z,1.08
2022-08-02T01:59:22.927Z,1.50
2022-08-02T01:59:40.206Z,1.30
2022-08-02T01:59:57.791Z,1.48
2022-08-02T02:00:15.278Z,1.52
2022-08-02T02:00:34.654Z,1.17
2022-08-02T02:00:51.742Z,1.17
2022-08-02T02:01:09.434Z,1.10
2022-08-02T02:01:32.831Z,1.25
2022-08-02T02:01:55.281Z,1.13
2022-08-02T02:02:13.427Z,1.50
2022-08-02T02:02:31.853Z,1.23
2022-08-02T02:02:49.746Z,0.90
2022-08-02T02:03:07.996Z,0.85
2022-08-02T02:03:26.871Z,0.90
2022-08-02T02:03:44.567Z,0.98
2022-08-02T02:04:01.674Z,1.08
2022-08-02T02:04:19.113Z,1.20
2022-08-02T02:04:36.029Z,1.20
2022-08-02T02:04:53.195Z,1.10
2022-08-02T02:05:12.852Z,1.08
2022-08-02T02:05:31.257Z,1.17
2022-08-02T02:05:48.557Z,1.35
2022-08-02T02:06:05.662Z,1.40
2022-08-02T02:06:23.094Z,1.02
2022-08-02T02:06:39.914Z,1.08
2022-08-02T02:06:58.449Z,1.10
2022-08-02T02:07:15.773Z,0.98
2022-08-02T02:07:33.756Z,0.80
2022-08-02T02:07:51.048Z,1.35
2022-08-02T02:08:09.342Z,1.13
2022-08-02T02:08:27.938Z,1.13
2022-08-02T02:08:44.617Z,1.38
2022-08-02T02:09:02.196Z,1.08
2022-08-02T02:09:19.540Z,0.98
2022-08-02T02:09:50.830Z,1.00
2022-08-02T02:10:09.250Z,1.17
2022-08-02T02:10:27.748Z,1.38
2022-08-02T02:10:45.520Z,1.35
2022-08-02T02:12:11.716Z,1.10
2022-08-02T02:12:11.815Z,1.00
2022-08-02T02:12:19.798Z,1.45
2022-08-02T02:12:38.287Z,1.23
2022-08-02T02:12:55.190Z,1.15
2022-08-02T02:13:12.700Z,1.17
2022-08-02T02:13:33.869Z,1.20
2022-08-02T02:13:50.677Z,1.17
2022-08-02T02:14:07.793Z,1.45
2022-08-02T02:14:24.643Z,1.50
2022-08-02T02:14:42.683Z,1.50
2022-08-02T02:15:10.241Z,1.42
2022-08-02T02:15:27.030Z,1.15
2022-08-02T02:15:47.278Z,1.00
2022-08-02T02:16:05.016Z,1.10
2022-08-02T02:16:22.616Z,1.13
2022-08-02T02:16:41.975Z,1.30
2022-08-02T02:16:59.348Z,1.13
2022-08-02T02:17:50.563Z,0.90
2022-08-02T02:18:12.570Z,1.23
2022-08-02T02:18:31.887Z,0.90
2022-08-02T02:18:49.016Z,0.95
2022-08-02T02:19:07.110Z,1.00
2022-08-02T02:19:24.161Z,0.90
2022-08-02T02:19:41.394Z,1.48
2022-08-02T02:19:58.407Z,1.42
2022-08-02T02:20:17.946Z,1.13
2022-08-02T02:20:34.562Z,1.05
2022-08-02T02:20:51.301Z,1.00
2022-08-02T02:21:07.962Z,1.08
2022-08-02T02:21:24.541Z,1.05
2022-08-02T02:21:42.128Z,1.17
2022-08-02T02:21:58.862Z,1.20
2022-08-02T02:22:15.800Z,1.13
2022-08-02T02:22:32.500Z,1.05
2022-08-02T02:22:49.825Z,1.25
2022-08-02T02:23:08.079Z,1.10
2022-08-02T02:23:25.872Z,1.00
2022-08-02T02:23:43.582Z,1.05
2022-08-02T02:24:00.484Z,1.02
2022-08-02T02:24:18.514Z,1.15
2022-08-02T02:24:35.718Z,1.10
2022-08-02T02:24:54.372Z,1.02
2022-08-02T02:25:12.174Z,0.90
2022-08-02T02:25:36.396Z,1.00
2022-08-02T02:25:58.856Z,1.08
2022-08-02T02:26:17.566Z,1.00
2022-08-02T02:26:38.584Z,0.85
2022-08-02T02:27:01.870Z,1.00
2022-08-02T02:27:19.240Z,0.75
2022-08-02T02:27:37.057Z,0.80
2022-08-02T02:27:56.566Z,0.68
2022-08-02T02:28:13.929Z,0.82
2022-08-02T02:28:32.641Z,0.80
2022-08-02T02:28:49.367Z,0.80
2022-08-02T02:29:08.861Z,1.08
2022-08-02T02:29:27.894Z,1.33
2022-08-02T02:29:47.003Z,0.95
2022-08-02T02:30:04.108Z,1.00
2022-08-02T02:30:21.794Z,1.05
2022-08-02T02:30:40.428Z,1.05
2022-08-02T02:31:00.425Z,1.38
2022-08-02T02:31:18.859Z,1.36
2022-08-02T02:31:36.736Z,1.13
2022-08-02T02:31:56.053Z,1.05
2022-08-02T02:32:14.076Z,1.13
2022-08-02T02:32:31.145Z,1.20
2022-08-02T02:32:47.960Z,1.10
2022-08-02T02:33:07.088Z,1.23
2022-08-02T02:33:27.720Z,1.25
2022-08-02T02:33:48.693Z,1.23
2022-08-02T02:34:10.290Z,1.05
2022-08-02T02:34:28.339Z,1.25
2022-08-02T02:34:47.455Z,1.20
2022-08-02T02:35:04.856Z,1.00
2022-08-02T02:35:21.673Z,1.05
2022-08-02T02:35:38.402Z,1.00
2022-08-02T02:35:55.108Z,1.00
2022-08-02T02:36:13.128Z,1.40
2022-08-02T02:36:30.890Z,1.50
2022-08-02T02:36:49.304Z,1.38
2022-08-02T02:37:07.398Z,1.30
2022-08-02T02:37:25.659Z,1.02
2022-08-02T02:37:44.696Z,0.90
2022-08-02T02:38:02.412Z,0.90
2022-08-02T02:38:20.314Z,0.82
2022-08-02T02:38:37.128Z,1.00
2022-08-02T02:38:55.788Z,1.20
2022-08-02T02:39:14.221Z,1.40
2022-08-02T02:39:31.361Z,0.98
2022-08-02T02:39:50.021Z,0.80
2022-08-02T02:40:08.233Z,0.82
2022-08-02T02:40:26.501Z,0.80
2022-08-02T02:40:44.899Z,0.73
2022-08-02T02:41:02.203Z,0.90
2022-08-02T02:41:20.050Z,0.90
2022-08-02T02:41:37.523Z,0.90
2022-08-02T02:41:56.061Z,0.90
2022-08-02T02:42:16.145Z,1.25
2022-08-02T02:42:33.553Z,1.38
2022-08-02T02:42:51.261Z,1.30
2022-08-02T02:43:08.204Z,1.45
2022-08-02T02:43:26.993Z,1.40
2022-08-02T02:43:46.318Z,1.33
2022-08-02T02:44:03.769Z,1.52
2022-08-02T02:44:21.028Z,1.38
2022-08-02T02:44:38.923Z,1.23
2022-08-02T02:44:56.254Z,1.45
2022-08-02T02:45:14.582Z,1.50
2022-08-02T02:45:31.949Z,1.55
2022-08-02T02:45:49.156Z,1.50
2022-08-02T02:46:06.760Z,1.65
2022-08-02T02:46:23.617Z,1.77
2022-08-02T02:46:40.534Z,1.73
2022-08-02T02:46:59.044Z,1.70
2022-08-02T02:47:15.907Z,1.30
2022-08-02T02:47:40.680Z,1.15
2022-08-02T02:48:00.078Z,1.33
2022-08-02T02:48:18.596Z,1.17
2022-08-02T02:48:36.145Z,1.10
2022-08-02T02:48:53.069Z,1.10
2022-08-02T02:49:11.284Z,0.90
2022-08-02T02:49:28.870Z,1.00
2022-08-02T02:49:47.369Z,0.98
2022-08-02T02:50:04.314Z,0.98
2022-08-02T02:50:21.747Z,0.93
2022-08-02T02:50:38.608Z,1.17
2022-08-02T02:50:55.601Z,1.15
2022-08-02T02:51:14.268Z,0.88
2022-08-02T02:51:31.213Z,0.80
2022-08-02T02:51:47.933Z,0.70
2022-08-02T02:52:05.836Z,0.93
2022-08-02T02:52:22.446Z,0.93
2022-08-02T02:52:40.180Z,0.75
2022-08-02T02:52:58.132Z,0.70
2022-08-02T02:53:16.883Z,0.70
2022-08-02T02:54:30.158Z,0.63
2022-08-02T02:54:30.225Z,0.93
2022-08-02T02:54:50.012Z,0.72
2022-08-02T02:55:07.584Z,0.93
2022-08-02T02:55:24.405Z,0.88
2022-08-02T02:55:41.841Z,0.93
2022-08-02T02:56:19.973Z,0.95
2022-08-02T02:56:37.042Z,1.17
2022-08-02T02:56:54.019Z,1.00
2022-08-02T02:57:11.012Z,1.08
2022-08-02T02:57:27.933Z,1.33
2022-08-02T02:57:45.929Z,1.08
2022-08-02T02:58:02.934Z,0.98
2022-08-02T02:58:19.502Z,1.20
2022-08-02T02:58:47.029Z,1.10
2022-08-02T02:59:03.895Z,1.13
2022-08-02T02:59:20.784Z,1.10
2022-08-02T02:59:49.080Z,1.38
2022-08-02T03:00:07.584Z,1.10
2022-08-02T03:00:39.701Z,1.05
2022-08-02T03:01:14.985Z,0.70
2022-08-02T03:01:55.235Z,0.90
2022-08-02T03:02:10.842Z,1.10
2022-08-02T03:02:27.908Z,0.72
2022-08-02T03:02:45.602Z,0.60
2022-08-02T03:03:02.770Z,0.60
2022-08-02T03:03:21.473Z,0.82
2022-08-02T03:03:40.152Z,1.00
2022-08-02T03:03:58.556Z,0.95
2022-08-02T03:04:15.738Z,1.00
2022-08-02T03:04:36.181Z,1.23
2022-08-02T03:05:11.738Z,0.90
2022-08-02T03:05:28.445Z,1.10
2022-08-02T03:05:45.258Z,1.08
2022-08-02T03:06:01.837Z,1.00
2022-08-02T03:06:31.944Z,0.80
2022-08-02T03:06:49.624Z,0.80
2022-08-02T03:07:06.343Z,0.80
2022-08-02T03:07:22.949Z,0.90
2022-08-02T03:07:40.197Z,0.93
2022-08-02T03:07:57.796Z,0.75
2022-08-02T03:08:14.436Z,0.80
2022-08-02T03:08:31.001Z,0.85
2022-08-02T03:08:47.556Z,0.70
2022-08-02T03:09:04.965Z,0.95
2022-08-02T03:09:21.580Z,1.10
2022-08-02T03:09:39.095Z,0.98
2022-08-02T03:09:55.706Z,0.90
2022-08-02T03:10:12.308Z,0.82
2022-08-02T03:10:28.943Z,0.80
2022-08-02T03:10:45.807Z,0.85
2022-08-02T03:11:04.597Z,0.70
2022-08-02T03:11:22.622Z,0.75
2022-08-02T03:11:39.743Z,1.00
2022-08-02T03:11:56.867Z,0.55
2022-08-02T03:12:14.654Z,0.57
2022-08-02T03:12:36.810Z,0.88
2022-08-02T03:12:53.704Z,0.77
2022-08-02T03:13:10.669Z,0.77
2022-08-02T03:13:33.191Z,0.82
2022-08-02T03:13:56.790Z,0.77
2022-08-02T03:14:13.540Z,0.75
2022-08-02T03:14:30.369Z,0.55
2022-08-02T03:14:49.236Z,0.50
2022-08-02T03:15:07.836Z,0.73
2022-08-02T03:15:26.863Z,0.90
2022-08-02T03:15:43.895Z,0.70
2022-08-02T03:16:00.940Z,0.63
2022-08-02T03:16:18.576Z,0.80
2022-08-02T03:16:41.638Z,0.80
2022-08-02T03:16:58.182Z,0.82
2022-08-02T03:17:14.800Z,0.92
2022-08-02T03:17:38.054Z,0.75
2022-08-02T03:17:55.689Z,1.20
2022-08-02T03:18:29.393Z,1.23
2022-08-02T03:18:45.986Z,1.10
2022-08-02T03:19:03.057Z,1.08
2022-08-02T03:19:21.790Z,1.05
2022-08-02T03:19:38.385Z,1.05
2022-08-02T03:19:55.324Z,1.00
2022-08-02T03:20:13.014Z,1.27
2022-08-02T03:20:29.607Z,1.50
2022-08-02T03:20:46.188Z,1.15
2022-08-02T03:21:03.400Z,0.90
2022-08-02T03:21:21.038Z,0.95
2022-08-02T03:21:37.998Z,0.90
2022-08-02T03:21:56.581Z,0.57
2022-08-02T03:22:14.348Z,1.10
2022-08-02T03:22:31.033Z,1.10
2022-08-02T03:22:49.187Z,0.82
2022-08-02T03:23:05.873Z,0.63
2022-08-02T03:23:23.732Z,0.90
2022-08-02T03:23:41.012Z,1.10
2022-08-02T03:23:57.668Z,1.20
2022-08-02T03:24:15.318Z,0.90
2022-08-02T03:24:44.982Z,0.88
2022-08-02T03:25:01.642Z,0.80
2022-08-02T03:25:18.629Z,0.63
2022-08-02T03:25:36.223Z,0.60
2022-08-02T03:25:52.943Z,0.68
2022-08-02T03:26:10.039Z,0.90
2022-08-02T03:26:26.606Z,0.93
2022-08-02T03:26:43.202Z,0.98
2022-08-02T03:27:00.766Z,1.00
2022-08-02T03:27:17.403Z,0.77
2022-08-02T03:27:33.976Z,0.90
2022-08-02T03:27:50.594Z,1.10
2022-08-02T03:28:07.154Z,1.10
2022-08-02T03:28:23.669Z,1.20
2022-08-02T03:28:40.512Z,1.20
2022-08-02T03:28:59.420Z,1.27
2022-08-02T03:29:18.012Z,1.33
2022-08-02T03:29:34.929Z,1.40
2022-08-02T03:29:51.594Z,1.17
2022-08-02T03:30:09.060Z,1.10
2022-08-02T03:30:27.700Z,1.26
2022-08-02T03:30:44.273Z,1.20
2022-08-02T03:31:01.396Z,1.35
2022-08-02T03:31:18.154Z,1.35
2022-08-02T03:31:34.947Z,1.10
2022-08-02T03:31:52.601Z,1.15
2022-08-02T03:32:09.597Z,1.50
2022-08-02T03:32:26.557Z,1.25
2022-08-02T03:32:44.926Z,1.17
2022-08-02T03:33:01.647Z,1.35
2022-08-02T03:33:18.478Z,1.40
2022-08-02T03:33:36.833Z,1.30
2022-08-02T03:33:54.175Z,1.20
2022-08-02T03:34:10.875Z,0.98
2022-08-02T03:34:27.542Z,1.02
2022-08-02T03:34:44.255Z,1.00
2022-08-02T03:35:02.287Z,1.50
2022-08-02T03:35:23.890Z,1.70
2022-08-02T03:35:41.615Z,1.33
2022-08-02T03:35:59.802Z,1.33
2022-08-02T03:36:20.530Z,1.45
2022-08-02T03:36:37.448Z,1.20
2022-08-02T03:36:56.010Z,1.10
2022-08-02T03:37:12.650Z,1.05
2022-08-02T03:37:29.908Z,1.10
2022-08-02T03:37:46.999Z,1.00
2022-08-02T03:38:05.035Z,1.05
2022-08-02T03:38:22.475Z,1.35
2022-08-02T03:38:46.035Z,0.90
2022-08-02T03:39:02.840Z,1.20
2022-08-02T03:39:21.005Z,1.10
2022-08-02T03:39:37.651Z,0.93
2022-08-02T03:40:09.400Z,0.70
2022-08-02T03:40:27.082Z,0.93
2022-08-02T03:40:44.113Z,1.20
2022-08-02T03:41:02.454Z,1.04
2022-08-02T03:41:19.265Z,1.35
2022-08-02T03:41:36.969Z,1.42
2022-08-02T03:41:54.714Z,1.30
2022-08-02T03:42:15.515Z,1.25
2022-08-02T03:42:33.265Z,1.33
2022-08-02T03:42:50.364Z,1.20
2022-08-02T03:43:07.463Z,1.25
2022-08-02T03:43:24.461Z,1.33
2022-08-02T03:43:45.630Z,0.95
2022-08-02T03:44:05.491Z,1.15
2022-08-02T03:44:22.615Z,1.30
2022-08-02T03:44:39.717Z,1.23
2022-08-02T03:44:56.655Z,1.17
2022-08-02T03:45:13.587Z,1.15
2022-08-02T03:45:31.440Z,0.93
2022-08-02T03:45:48.917Z,1.00
2022-08-02T03:46:07.727Z,1.13
2022-08-02T03:46:24.969Z,1.00
2022-08-02T03:46:41.977Z,0.88
2022-08-02T03:46:59.681Z,0.95
2022-08-02T03:47:17.339Z,1.15
2022-08-02T03:47:34.327Z,0.90
2022-08-02T03:47:51.683Z,0.75
2022-08-02T03:48:30.502Z,1.00
2022-08-02T03:48:46.707Z,1.48
2022-08-02T03:49:03.366Z,1.13
2022-08-02T03:49:20.517Z,1.25
2022-08-02T03:49:37.672Z,1.33
2022-08-02T03:49:55.139Z,1.20
2022-08-02T03:50:12.409Z,1.20
2022-08-02T03:50:30.161Z,1.30
2022-08-02T03:50:47.852Z,1.20
2022-08-02T03:51:04.989Z,1.38
2022-08-02T03:51:22.131Z,1.15
2022-08-02T03:51:38.934Z,1.10
2022-08-02T03:51:55.679Z,1.38
2022-08-02T03:52:13.723Z,1.40
2022-08-02T03:52:31.593Z,1.40
2022-08-02T03:52:48.351Z,1.27
2022-08-02T03:53:04.997Z,1.17
2022-08-02T03:53:22.451Z,1.20
2022-08-02T03:53:40.274Z,1.20
2022-08-02T03:53:56.937Z,1.02
2022-08-02T03:54:13.780Z,1.02
2022-08-02T03:54:32.892Z,1.06
2022-08-02T03:54:52.273Z,0.95
2022-08-02T03:55:09.193Z,0.93
2022-08-02T03:55:25.818Z,1.48
2022-08-02T03:55:42.509Z,1.08
2022-08-02T03:56:00.539Z,0.95
2022-08-02T03:56:17.304Z,0.90
2022-08-02T03:56:34.085Z,0.98
2022-08-02T03:56:50.756Z,1.00
2022-08-02T03:57:07.511Z,0.88
2022-08-02T03:57:27.566Z,0.82
2022-08-02T03:57:44.391Z,1.00
2022-08-02T03:58:01.040Z,0.90
2022-08-02T03:58:18.396Z,1.10
2022-08-02T03:58:35.035Z,1.10
2022-08-02T03:59:07.746Z,0.77
2022-08-02T03:59:24.311Z,0.70
2022-08-02T03:59:41.790Z,0.60
2022-08-02T03:59:58.343Z,0.60
2022-08-02T04:00:18.479Z,0.63
2022-08-02T04:00:36.154Z,0.68
2022-08-02T04:00:53.799Z,1.00
2022-08-02T04:01:10.570Z,1.10
2022-08-02T04:01:27.825Z,0.88
2022-08-02T04:01:44.403Z,0.80
2022-08-02T04:02:06.989Z,0.98
2022-08-02T04:02:24.564Z,1.00
2022-08-02T04:02:41.173Z,0.98
2022-08-02T04:02:58.131Z,1.23
2022-08-02T04:03:16.201Z,1.13
2022-08-02T04:03:37.686Z,1.10
2022-08-02T04:03:54.225Z,1.00
2022-08-02T04:04:10.824Z,0.82
2022-08-02T04:04:27.389Z,0.80
2022-08-02T04:04:43.986Z,0.60
2022-08-02T04:05:01.518Z,0.73
2022-08-02T04:05:18.388Z,0.85
2022-08-02T04:05:34.922Z,0.80
2022-08-02T04:06:12.512Z,1.00
2022-08-02T04:06:32.440Z,0.90
2022-08-02T04:06:49.011Z,0.80
2022-08-02T04:07:07.458Z,0.90
2022-08-02T04:08:35.119Z,0.80
2022-08-02T04:08:35.243Z,1.00
2022-08-02T04:08:39.086Z,1.10
2022-08-02T04:08:55.729Z,1.25
2022-08-02T04:09:12.285Z,1.50
2022-08-02T04:09:28.862Z,1.45
2022-08-02T04:09:46.385Z,1.20
2022-08-02T04:10:03.479Z,1.15
2022-08-02T04:10:20.046Z,0.88
2022-08-02T04:10:51.677Z,1.20
2022-08-02T04:11:29.351Z,0.93
2022-08-02T04:11:45.918Z,1.23
2022-08-02T04:12:03.533Z,1.15
2022-08-02T04:12:20.180Z,1.33
2022-08-02T04:12:36.761Z,1.35
2022-08-02T04:12:53.874Z,1.42